Time;durP1;ratioP1;P1;durP2;ratioP2;P2;SDS_P1;SDS_P2;PMS_P1;PMS_P2;Temp;Humidity;BMP_temperature;BMP_pressure;BME280_temperature;BME280_humidity;BME280_pressure;Samples;Min_cycle;Max_cycle;Signal;HPM_P1;HPM_P2
2023/04/10 00:02:18;;;;;;;5.25;4.75;;;;;;;6.09;87.92;62624.84;4931511;29;20490;-79
2023/04/10 00:04:45;;;;;;;5.70;4.25;;;;;;;6.17;87.08;62630.56;4926837;29;20398;-80
2023/04/10 00:07:13;;;;;;;4.45;4.05;;;;;;;6.24;84.35;62639.78;4930436;29;20230;-79
2023/04/10 00:09:40;;;;;;;4.75;4.35;;;;;;;6.25;84.21;62648.91;4932262;29;20202;-79
2023/04/10 00:12:07;;;;;;;4.55;4.20;;;;;;;6.31;84.09;62647.00;4929903;29;20222;-78
2023/04/10 00:14:35;;;;;;;4.80;4.40;;;;;;;6.29;83.94;62648.00;4927584;29;20214;-80
2023/04/10 00:17:02;;;;;;;4.63;4.10;;;;;;;6.39;84.15;62652.72;4934049;29;20301;-80
2023/04/10 00:19:29;;;;;;;4.60;4.18;;;;;;;6.40;82.08;62658.81;4931162;29;20230;-79
2023/04/10 00:21:56;;;;;;;4.38;3.97;;;;;;;6.41;81.12;62657.31;4933947;29;20308;-81
2023/04/10 00:24:23;;;;;;;4.45;4.05;;;;;;;6.38;79.53;62651.69;4931221;29;20204;-79
2023/04/10 00:26:50;;;;;;;3.75;3.50;;;;;;;6.37;80.70;62653.69;4926604;29;20222;-78
2023/04/10 00:29:17;;;;;;;4.63;4.22;;;;;;;6.35;80.18;62656.69;4931799;29;20236;-78
2023/04/10 00:31:45;;;;;;;4.88;4.47;;;;;;;6.32;81.03;62648.56;4930730;29;20226;-78
2023/04/10 00:34:13;;;;;;;5.47;4.05;;;;;;;6.34;80.47;62655.16;4933127;29;20232;-79
2023/04/10 00:36:40;;;;;;;4.78;4.38;;;;;;;6.42;79.43;62658.84;4919002;29;20398;-79
2023/04/10 00:39:07;;;;;;;4.07;3.78;;;;;;;6.41;78.51;62657.31;4912826;29;20262;-79
2023/04/10 00:41:34;;;;;;;4.70;4.30;;;;;;;6.35;78.00;62651.63;4927437;29;20281;-79
2023/04/10 00:44:01;;;;;;;3.90;3.63;;;;;;;6.37;77.91;62656.22;4929930;29;20201;-79
2023/04/10 00:46:31;;;;;;;5.70;4.25;;;;;;;6.40;77.05;62656.78;4930980;29;20232;-79
2023/04/10 00:49:00;;;;;;;4.15;3.75;;;;;;;6.40;76.98;62656.78;4925744;29;20274;-79
2023/04/10 00:51:27;;;;;;;4.05;3.75;;;;;;;6.50;76.45;62669.13;4911643;29;20202;-79
2023/04/10 00:53:55;;;;;;;4.38;4.07;;;;;;;6.40;76.93;62658.81;4916928;29;20205;-80
2023/04/10 00:56:23;;;;;;;4.70;4.30;;;;;;;6.46;77.13;62660.47;4944550;29;20209;-80
2023/04/10 00:58:51;;;;;;;4.10;3.67;;;;;;;6.58;76.67;62675.38;4936892;29;20222;-80
2023/04/10 01:01:17;;;;;;;4.18;3.88;;;;;;;6.62;77.15;62681.50;4932264;29;20233;-80
2023/04/10 01:03:45;;;;;;;5.72;4.93;;;;;;;6.74;76.98;62688.81;4932342;29;20209;-80
2023/04/10 01:06:22;;;;;;;4.88;4.38;;;;;;;6.68;76.53;62685.66;4927235;29;20201;-80
2023/04/10 01:09:00;;;;;;;4.13;3.83;;;;;;;6.72;77.19;62689.81;4931681;29;20261;-79
2023/04/10 01:11:39;;;;;;;4.65;4.25;;;;;;;6.69;77.20;62681.66;4931930;29;20217;-79
2023/04/10 01:14:13;;;;;;;4.07;3.70;;;;;;;6.67;78.06;62684.13;4932122;29;20303;-80
2023/04/10 01:16:48;;;;;;;4.90;4.47;;;;;;;6.66;78.85;62685.63;4929403;29;20221;-79
2023/04/10 01:19:33;;;;;;;4.68;4.28;;;;;;;6.67;79.18;62684.66;4932054;29;20205;-80
2023/04/10 01:22:04;;;;;;;4.65;4.35;;;;;;;6.59;79.91;62678.41;4930915;29;20228;-80
2023/04/10 01:24:50;;;;;;;4.47;4.07;;;;;;;6.55;81.14;62672.28;4929614;29;20211;-80
2023/04/10 01:27:36;;;;;;;4.88;4.38;;;;;;;6.57;81.76;62673.81;4929954;29;20229;-80
2023/04/10 01:30:06;;;;;;;4.22;3.92;;;;;;;6.50;81.87;62667.13;4932077;29;20397;-80
2023/04/10 01:32:36;;;;;;;4.63;4.22;;;;;;;6.41;83.43;62660.38;4929952;29;20222;-80
2023/04/10 01:35:07;;;;;;;4.32;3.92;;;;;;;6.55;84.97;62669.22;4928458;29;20240;-80
2023/04/10 01:37:39;;;;;;;4.70;4.30;;;;;;;6.70;84.60;62687.75;4932448;29;20222;-79
2023/04/10 01:40:11;;;;;;;3.78;3.47;;;;;;;6.73;85.68;62690.31;4936000;29;20290;-80
2023/04/10 01:42:42;;;;;;;5.03;4.57;;;;;;;6.71;86.22;62685.72;4934108;29;20249;-79
2023/04/10 01:45:17;;;;;;;4.20;3.80;;;;;;;6.57;87.88;62676.34;4933480;29;20205;-79
2023/04/10 01:47:44;;;;;;;4.93;4.45;;;;;;;6.53;89.61;62672.22;4935560;29;20231;-80
2023/04/10 01:50:12;;;;;;;4.03;3.72;;;;;;;6.39;89.64;62655.25;4936644;29;20405;-80
2023/04/10 01:52:41;;;;;;;4.30;3.97;;;;;;;6.34;89.89;62652.63;4932577;29;20277;-80
2023/04/10 01:55:09;;;;;;;5.18;4.20;;;;;;;6.24;90.95;62637.25;4933630;29;20225;-79
2023/04/10 01:57:36;;;;;;;4.53;4.22;;;;;;;6.34;91.17;62652.63;4934361;29;20324;-79
2023/04/10 02:00:03;;;;;;;4.95;4.53;;;;;;;6.31;91.68;62647.53;4934014;29;20242;-80
2023/04/10 02:02:35;;;;;;;5.00;4.60;;;;;;;6.42;92.00;62661.38;4935043;29;20234;-79
2023/04/10 02:05:02;;;;;;;4.47;4.07;;;;;;;6.43;92.14;62661.91;4933353;29;20202;-79
2023/04/10 02:07:35;;;;;;;4.68;4.00;;;;;;;6.34;91.60;62652.63;4934169;29;20229;-80
2023/04/10 02:10:09;;;;;;;5.70;4.35;;;;;;;6.36;92.55;62652.16;4934203;29;20182;-79
2023/04/10 02:12:40;;;;;;;4.30;3.92;;;;;;;6.37;93.13;62653.69;4932262;29;20245;-80
2023/04/10 02:15:09;;;;;;;5.13;4.70;;;;;;;6.36;92.84;62650.16;4933096;29;20198;-80
2023/04/10 02:17:40;;;;;;;5.20;4.47;;;;;;;6.46;92.64;62665.50;4934403;29;20242;-81
2023/04/10 02:20:11;;;;;;;4.80;4.40;;;;;;;6.43;93.14;62654.31;4934937;29;20277;-80
2023/04/10 02:22:42;;;;;;;4.63;4.32;;;;;;;6.46;92.98;62663.00;4932843;29;20261;-80
2023/04/10 02:25:10;;;;;;;4.30;3.90;;;;;;;6.50;92.23;62664.06;4932810;29;20202;-80
2023/04/10 02:27:38;;;;;;;4.80;4.30;;;;;;;6.51;91.41;62670.16;4934055;29;20214;-80
2023/04/10 02:30:07;;;;;;;5.60;4.43;;;;;;;6.57;92.44;62676.34;4918624;29;20209;-80
2023/04/10 02:32:34;;;;;;;4.30;3.90;;;;;;;6.62;92.52;62678.97;4933168;29;20226;-79
2023/04/10 02:35:03;;;;;;;4.57;4.07;;;;;;;6.62;91.06;62678.97;4933993;29;20205;-80
2023/04/10 02:37:31;;;;;;;4.50;4.10;;;;;;;6.52;92.94;62669.16;4929319;29;20274;-80
2023/04/10 02:39:58;;;;;;;4.25;3.80;;;;;;;6.62;93.48;62676.97;4925057;29;20206;-79
2023/04/10 02:42:26;;;;;;;5.18;4.25;;;;;;;6.62;92.24;62676.44;4934523;29;20222;-80
2023/04/10 02:44:52;;;;;;;4.18;3.85;;;;;;;6.70;91.91;62687.22;4932753;29;20237;-80
2023/04/10 02:47:20;;;;;;;4.00;3.70;;;;;;;6.62;91.67;62679.50;4922395;29;20222;-80
2023/04/10 02:49:47;;;;;;;6.68;4.03;;;;;;;6.62;91.74;62681.50;4932302;29;20266;-80
2023/04/10 02:52:16;;;;;;;3.95;3.65;;;;;;;6.69;89.35;62683.66;4932246;29;20226;-79
2023/04/10 02:54:43;;;;;;;4.03;3.42;;;;;;;6.70;86.38;62685.22;4934638;29;20205;-80
2023/04/10 02:57:10;;;;;;;4.40;4.00;;;;;;;6.65;85.03;62684.59;4921389;29;20254;-79
2023/04/10 02:59:37;;;;;;;4.60;4.20;;;;;;;6.52;85.46;62668.66;4932755;29;20213;-79
2023/04/10 03:02:04;;;;;;;5.55;4.15;;;;;;;6.62;85.77;62681.50;4934321;29;20261;-79
2023/04/10 03:04:32;;;;;;;4.78;4.20;;;;;;;6.57;86.45;62674.34;4929304;29;20276;-79
2023/04/10 03:07:00;;;;;;;5.35;4.15;;;;;;;6.57;89.64;62676.88;4923133;29;20230;-79
2023/04/10 03:09:28;;;;;;;4.28;3.90;;;;;;;6.49;90.26;62668.59;4933557;29;20241;-80
2023/04/10 03:11:55;;;;;;;4.10;3.78;;;;;;;6.51;91.08;62668.13;4934177;29;20222;-79
2023/04/10 03:14:23;;;;;;;4.10;3.80;;;;;;;6.46;91.18;62659.94;4925560;29;20226;-79
2023/04/10 03:16:50;;;;;;;4.45;3.97;;;;;;;6.53;91.49;62669.69;4931572;29;20519;-79
2023/04/10 03:19:17;;;;;;;4.63;4.15;;;;;;;6.60;91.61;62679.44;4935249;29;20225;-79
2023/04/10 03:21:45;;;;;;;4.32;3.97;;;;;;;6.74;91.70;62691.88;4932109;29;20241;-81
2023/04/10 03:24:12;;;;;;;5.13;4.68;;;;;;;6.70;92.19;62685.22;4932733;29;20222;-80
2023/04/10 03:26:41;;;;;;;4.70;4.35;;;;;;;6.79;92.37;62696.50;4933330;29;20218;-80
2023/04/10 03:29:08;;;;;;;4.60;4.25;;;;;;;6.85;91.63;62705.22;4934093;29;20250;-81
2023/04/10 03:31:35;;;;;;;4.63;4.22;;;;;;;6.86;91.85;62703.72;4929929;29;20221;-80
2023/04/10 03:34:02;;;;;;;4.82;4.43;;;;;;;6.74;90.98;62696.41;4936767;29;20258;-79
2023/04/10 03:36:29;;;;;;;4.20;3.90;;;;;;;6.68;91.80;62690.72;4933946;29;20212;-80
2023/04/10 03:38:56;;;;;;;4.97;4.47;;;;;;;6.67;92.54;62684.66;4931292;29;20206;-79
2023/04/10 03:41:24;;;;;;;4.80;4.40;;;;;;;6.52;93.11;62673.72;4932676;29;20238;-79
2023/04/10 03:43:53;;;;;;;4.90;4.43;;;;;;;6.53;93.03;62667.16;4932611;29;20250;-79
2023/04/10 03:46:21;;;;;;;4.50;4.10;;;;;;;6.52;92.50;62668.66;4931557;29;20201;-80
2023/04/10 03:48:49;;;;;;;4.45;4.15;;;;;;;6.50;91.56;62664.06;4935510;29;20232;-81
2023/04/10 03:51:17;;;;;;;3.95;3.65;;;;;;;6.48;92.69;62665.06;4933684;29;20203;-80
2023/04/10 03:53:44;;;;;;;4.10;3.80;;;;;;;6.39;93.20;62655.78;4932120;29;20502;-81
2023/04/10 03:56:11;;;;;;;4.30;4.00;;;;;;;6.54;92.41;62673.25;4930664;29;20218;-80
2023/04/10 03:58:38;;;;;;;4.75;4.35;;;;;;;6.50;91.84;62666.59;4912048;29;20223;-79
2023/04/10 04:01:08;;;;;;;4.10;3.80;;;;;;;6.58;91.21;62674.84;4927848;29;20257;-80
2023/04/10 04:03:35;;;;;;;4.30;4.00;;;;;;;6.49;90.07;62666.06;4933675;29;20301;-81
2023/04/10 04:06:02;;;;;;;4.55;4.25;;;;;;;6.36;91.11;62657.22;4924101;29;20207;-80
2023/04/10 04:08:29;;;;;;;4.95;4.28;;;;;;;6.39;92.54;62657.78;4913458;29;20428;-79
2023/04/10 04:10:56;;;;;;;4.95;4.55;;;;;;;6.45;92.95;62667.03;4929707;29;20205;-79
2023/04/10 04:13:24;;;;;;;5.07;4.55;;;;;;;6.53;91.82;62669.69;4917583;29;20237;-80
2023/04/10 04:15:51;;;;;;;6.50;5.40;;;;;;;6.55;91.76;62671.75;4914485;29;20202;-80
2023/04/10 04:18:19;;;;;;;4.93;4.38;;;;;;;6.56;91.15;62673.28;4919985;29;20234;-80
2023/04/10 04:20:47;;;;;;;4.93;4.55;;;;;;;6.67;91.93;62684.13;4934014;29;20260;-80
2023/04/10 04:23:14;;;;;;;4.20;3.85;;;;;;;6.64;91.28;62681.53;4936218;29;20222;-80
2023/04/10 04:25:40;;;;;;;5.43;4.93;;;;;;;6.75;91.76;62695.41;4934114;29;20202;-79
2023/04/10 04:28:08;;;;;;;5.32;4.18;;;;;;;6.81;92.32;62701.09;4930851;29;20222;-82
2023/04/10 04:30:35;;;;;;;5.50;4.95;;;;;;;6.88;93.15;62706.31;4932795;29;20523;-81
2023/04/10 04:33:02;;;;;;;5.10;4.68;;;;;;;6.87;93.27;62702.75;4934494;29;20278;-81
2023/04/10 04:35:30;;;;;;;5.32;4.90;;;;;;;6.86;92.56;62706.25;4929462;29;20233;-78
2023/04/10 04:37:57;;;;;;;5.40;4.82;;;;;;;6.83;92.08;62703.16;4923447;29;20294;-78
2023/04/10 04:40:24;;;;;;;6.32;4.78;;;;;;;6.75;93.07;62685.31;4918948;29;20239;-80
2023/04/10 04:42:51;;;;;;;6.25;5.05;;;;;;;6.77;92.54;62694.97;4915325;29;20249;-80
2023/04/10 04:45:20;;;;;;;6.13;5.53;;;;;;;6.89;92.05;62707.34;4913875;29;20297;-79
2023/04/10 04:47:47;;;;;;;4.88;4.47;;;;;;;6.96;90.82;62719.09;4928217;29;20417;-79
2023/04/10 04:50:14;;;;;;;5.30;4.82;;;;;;;6.93;91.21;62713.47;4911802;29;20210;-79
2023/04/10 04:52:44;;;;;;;4.82;4.43;;;;;;;6.94;90.86;62711.97;4912853;29;20342;-78
2023/04/10 04:55:11;;;;;;;6.38;4.60;;;;;;;6.93;91.10;62711.47;4925552;29;20233;-80
2023/04/10 04:57:38;;;;;;;6.13;4.70;;;;;;;6.88;91.59;62708.84;4934042;29;20221;-79
2023/04/10 05:00:06;;;;;;;6.00;5.40;;;;;;;6.78;92.18;62690.91;4932825;29;20227;-80
2023/04/10 05:02:33;;;;;;;5.63;4.75;;;;;;;6.85;92.67;62703.19;4933519;29;20297;-81
2023/04/10 05:05:02;;;;;;;4.93;4.60;;;;;;;6.80;91.98;62692.47;4929647;29;20207;-79
2023/04/10 05:07:29;;;;;;;5.55;5.05;;;;;;;7.00;91.99;62716.16;4927395;29;20282;-80
2023/04/10 05:09:57;;;;;;;6.00;5.22;;;;;;;7.01;92.10;62721.72;4931522;29;20209;-79
2023/04/10 05:12:24;;;;;;;5.50;5.00;;;;;;;6.89;91.06;62704.81;4936201;29;20242;-79
2023/04/10 05:14:51;;;;;;;5.88;5.38;;;;;;;6.99;91.82;62717.13;4935764;29;20202;-79
2023/04/10 05:17:18;;;;;;;5.57;5.07;;;;;;;6.99;91.94;62717.66;4936897;29;20232;-79
2023/04/10 05:19:46;;;;;;;5.60;5.10;;;;;;;6.96;92.72;62714.03;4935663;29;20210;-80
2023/04/10 05:22:13;;;;;;;5.55;5.03;;;;;;;6.99;92.38;62717.66;4933133;29;20241;-79
2023/04/10 05:24:40;;;;;;;5.70;5.18;;;;;;;7.25;92.21;62746.50;4930745;29;20216;-80
2023/04/10 05:27:08;;;;;;;5.93;5.32;;;;;;;7.36;92.21;62755.31;4935606;29;20226;-79
2023/04/10 05:29:35;;;;;;;4.30;4.00;;;;;;;7.15;92.10;62731.09;4938322;29;20222;-79
2023/04/10 05:32:03;;;;;;;5.03;4.53;;;;;;;7.43;90.82;62762.53;4936653;29;20257;-80
2023/04/10 05:34:30;;;;;;;6.82;5.03;;;;;;;7.44;91.62;62760.53;4937099;29;20205;-79
2023/04/10 05:36:57;;;;;;;7.22;6.30;;;;;;;7.42;93.16;62761.50;4936882;29;20222;-79
2023/04/10 05:39:24;;;;;;;6.55;5.95;;;;;;;7.64;93.43;62783.69;4936040;29;20232;-79
2023/04/10 05:41:51;;;;;;;7.35;6.45;;;;;;;7.62;93.44;62784.69;4936589;29;20238;-80
2023/04/10 05:44:20;;;;;;;8.35;7.05;;;;;;;7.58;93.86;62775.47;4931266;29;20191;-80
2023/04/10 05:46:47;;;;;;;7.60;6.80;;;;;;;7.71;94.34;62788.38;4923039;29;20250;-79
2023/04/10 05:49:15;;;;;;;8.88;6.47;;;;;;;7.71;94.52;62791.44;4918159;29;20219;-80
2023/04/10 05:51:43;;;;;;;7.63;6.82;;;;;;;7.71;94.77;62793.97;4919046;29;20298;-80
2023/04/10 05:54:10;;;;;;;9.60;7.00;;;;;;;7.99;93.82;62820.34;4927693;29;20205;-80
2023/04/10 05:56:40;;;;;;;15.32;7.22;;;;;;;7.99;91.04;62822.34;4921460;29;20222;-80
2023/04/10 05:59:06;;;;;;;6.82;6.22;;;;;;;8.06;90.19;62824.50;4916934;29;20206;-80
2023/04/10 06:01:35;;;;;;;7.90;6.55;;;;;;;8.29;87.19;62853.38;4919878;29;20494;-79
2023/04/10 06:04:03;;;;;;;8.13;7.32;;;;;;;8.21;87.83;62845.59;4920504;29;20195;-80
2023/04/10 06:06:30;;;;;;;7.95;7.15;;;;;;;8.40;87.18;62864.22;4936998;29;20241;-80
2023/04/10 06:08:57;;;;;;;8.13;7.30;;;;;;;8.53;87.93;62872.56;4936040;29;20240;-80
2023/04/10 06:11:24;;;;;;;7.70;6.90;;;;;;;8.46;87.09;62868.38;4934798;29;20202;-80
2023/04/10 06:13:51;;;;;;;6.93;6.22;;;;;;;8.69;85.99;62892.16;4929274;29;20277;-80
2023/04/10 06:16:18;;;;;;;10.18;7.15;;;;;;;8.85;84.37;62910.72;4936025;29;20403;-79
2023/04/10 06:18:46;;;;;;;8.60;7.32;;;;;;;9.08;84.72;62934.47;4919406;29;20210;-80
2023/04/10 06:21:14;;;;;;;9.32;7.40;;;;;;;9.22;82.64;62946.94;4916521;29;20215;-79
2023/04/10 06:23:40;;;;;;;14.27;9.88;;;;;;;9.16;79.11;62945.28;4932869;29;20380;-79
2023/04/10 06:26:07;;;;;;;8.98;8.07;;;;;;;9.28;79.09;62952.63;4933479;29;20210;-80
2023/04/10 06:28:35;;;;;;;10.10;8.40;;;;;;;9.49;76.73;62976.34;4934843;29;20222;-80
2023/04/10 06:31:03;;;;;;;10.10;8.15;;;;;;;9.23;77.76;62945.41;4936587;29;20206;-78
2023/04/10 06:33:30;;;;;;;17.08;11.48;;;;;;;9.22;77.97;62949.47;4935150;29;20222;-81
2023/04/10 06:35:59;;;;;;;14.77;9.60;;;;;;;9.41;77.08;62966.03;4923600;29;20238;-80
2023/04/10 06:38:26;;;;;;;14.63;9.63;;;;;;;9.43;77.76;62970.13;4918100;29;20318;-79
2023/04/10 06:40:54;;;;;;;10.48;8.73;;;;;;;9.74;76.31;63000.19;4916060;29;20202;-79
2023/04/10 06:43:21;;;;;;;8.00;7.20;;;;;;;9.80;73.06;63003.81;4925193;29;20234;-79
2023/04/10 06:45:48;;;;;;;8.25;7.45;;;;;;;9.86;71.33;63012.06;4935277;29;20218;-80
2023/04/10 06:48:15;;;;;;;9.63;8.13;;;;;;;9.77;71.84;63005.28;4934669;29;20218;-80
2023/04/10 06:50:42;;;;;;;9.57;7.82;;;;;;;9.61;72.71;62991.31;4936018;29;20209;-79
2023/04/10 06:53:10;;;;;;;10.27;8.38;;;;;;;9.77;72.49;63005.81;4936764;29;20222;-80
2023/04/10 06:55:37;;;;;;;12.30;8.80;;;;;;;9.67;73.89;62992.41;4933266;29;20507;-80
2023/04/10 06:58:05;;;;;;;10.52;8.70;;;;;;;9.94;73.54;63020.84;4933208;29;20226;-80
2023/04/10 07:00:31;;;;;;;8.85;7.95;;;;;;;10.08;72.27;63040.44;4934361;29;20194;-80
2023/04/10 07:02:59;;;;;;;9.00;8.10;;;;;;;10.14;71.79;63046.66;4935891;29;20238;-80
2023/04/10 07:05:26;;;;;;;9.55;8.52;;;;;;;10.33;68.92;63060.72;4930946;29;20230;-79
2023/04/10 07:07:53;;;;;;;10.30;7.60;;;;;;;9.76;68.11;63004.78;4935859;29;20265;-79
2023/04/10 07:10:21;;;;;;;9.68;7.72;;;;;;;9.66;69.96;62991.38;4936053;29;20206;-80
2023/04/10 07:12:49;;;;;;;8.52;7.68;;;;;;;9.90;69.62;63014.19;4934237;29;20245;-80
2023/04/10 07:15:16;;;;;;;10.23;8.93;;;;;;;9.91;69.26;63014.69;4935258;29;20205;-80
2023/04/10 07:17:43;;;;;;;11.63;8.95;;;;;;;9.84;70.65;63015.59;4935633;29;20222;-80
2023/04/10 07:20:11;;;;;;;11.05;8.07;;;;;;;9.82;72.02;63007.94;4938501;29;20202;-79
2023/04/10 07:22:38;;;;;;;9.50;8.15;;;;;;;9.86;72.37;63012.06;4933871;29;20234;-80
2023/04/10 07:25:07;;;;;;;10.73;7.95;;;;;;;9.60;73.37;62988.22;4936693;29;20202;-81
2023/04/10 07:27:35;;;;;;;9.48;8.18;;;;;;;9.79;72.00;63010.44;4935338;29;20214;-81
2023/04/10 07:30:02;;;;;;;11.23;9.43;;;;;;;9.70;71.56;63001.13;4925453;29;20218;-81
2023/04/10 07:32:29;;;;;;;15.73;12.00;;;;;;;9.34;73.63;62961.88;4922657;29;20281;-79
2023/04/10 07:34:56;;;;;;;14.60;10.73;;;;;;;9.24;74.72;62946.47;4932941;29;20268;-80
2023/04/10 07:37:23;;;;;;;19.83;11.73;;;;;;;9.31;74.52;62953.16;4935633;29;20499;-79
2023/04/10 07:39:50;;;;;;;13.07;9.35;;;;;;;9.30;75.63;62955.19;4933576;29;20232;-80
2023/04/10 07:42:18;;;;;;;12.65;8.77;;;;;;;9.19;75.51;62948.91;4932730;29;20250;-80
2023/04/10 07:44:46;;;;;;;9.82;8.40;;;;;;;9.24;76.15;62949.00;4934720;29;20223;-78
2023/04/10 07:47:13;;;;;;;9.90;8.07;;;;;;;9.44;76.68;62971.69;4919700;29;20218;-76
2023/04/10 07:49:40;;;;;;;11.63;9.18;;;;;;;9.43;74.12;62970.13;4922808;29;20206;-76
2023/04/10 07:52:07;;;;;;;9.65;8.55;;;;;;;9.32;74.87;62954.72;4931755;29;20242;-76
2023/04/10 07:54:34;;;;;;;13.32;10.02;;;;;;;9.46;75.39;62973.75;4931195;29;20233;-76
2023/04/10 07:57:01;;;;;;;10.90;9.18;;;;;;;9.79;74.24;63005.34;4927784;29;20218;-76
2023/04/10 07:59:29;;;;;;;12.95;9.98;;;;;;;10.19;72.24;63051.84;4929831;29;20202;-77
2023/04/10 08:01:57;;;;;;;11.10;8.27;;;;;;;10.33;68.34;63063.25;4927728;29;20237;-78
2023/04/10 08:04:25;;;;;;;11.13;8.43;;;;;;;10.29;67.91;63054.53;4931973;29;20205;-78
2023/04/10 08:06:52;;;;;;;8.77;7.93;;;;;;;10.54;67.33;63079.38;4936117;29;20253;-77
2023/04/10 08:09:20;;;;;;;9.98;8.98;;;;;;;10.37;68.59;63067.41;4930580;29;20206;-79
2023/04/10 08:11:47;;;;;;;12.05;9.82;;;;;;;10.41;67.39;63077.13;4932614;29;20218;-77
2023/04/10 08:14:14;;;;;;;14.38;11.05;;;;;;;10.41;67.59;63068.97;4928643;29;20210;-78
2023/04/10 08:16:41;;;;;;;11.23;8.82;;;;;;;10.21;68.02;63050.84;4928269;29;20225;-76
2023/04/10 08:19:10;;;;;;;14.05;9.65;;;;;;;10.39;67.73;63066.91;4930519;29;20499;-76
2023/04/10 08:21:37;;;;;;;9.93;8.93;;;;;;;10.68;67.15;63096.94;4929118;29;20218;-77
2023/04/10 08:24:05;;;;;;;11.35;8.57;;;;;;;10.80;66.00;63108.84;4924201;29;20203;-76
2023/04/10 08:26:32;;;;;;;9.48;8.48;;;;;;;10.88;64.45;63120.19;4924280;29;20200;-77
2023/04/10 08:29:00;;;;;;;11.27;8.00;;;;;;;11.03;63.52;63135.19;4931425;29;20195;-76
2023/04/10 08:31:28;;;;;;;14.68;10.23;;;;;;;10.68;64.70;63098.97;4928403;29;20216;-75
2023/04/10 08:33:55;;;;;;;10.98;9.07;;;;;;;11.03;65.12;63135.19;4925968;29;20202;-76
2023/04/10 08:36:23;;;;;;;9.38;8.35;;;;;;;10.95;63.84;63126.91;4927725;29;20278;-74
2023/04/10 08:38:50;;;;;;;18.25;11.65;;;;;;;10.84;64.83;63116.03;4932625;29;20284;-76
2023/04/10 08:41:19;;;;;;;16.90;11.63;;;;;;;10.79;64.73;63108.31;4925956;29;20250;-76
2023/04/10 08:43:48;;;;;;;11.20;8.95;;;;;;;10.94;65.48;63123.34;4928165;29;20226;-77
2023/04/10 08:46:15;;;;;;;11.93;9.60;;;;;;;11.08;65.07;63140.38;4930431;29;20507;-76
2023/04/10 08:48:46;;;;;;;11.32;8.13;;;;;;;11.37;62.93;63170.41;4923067;29;20211;-77
2023/04/10 08:51:17;;;;;;;19.80;10.52;;;;;;;11.61;62.16;63195.78;4926083;29;20198;-75
2023/04/10 08:53:48;;;;;;;14.55;10.60;;;;;;;10.85;64.31;63117.09;4930040;29;20253;-78
2023/04/10 08:56:16;;;;;;;25.98;14.18;;;;;;;10.66;65.34;63094.88;4928637;29;20237;-77
2023/04/10 08:58:43;;;;;;;13.70;9.18;;;;;;;10.85;64.81;63119.63;4926233;29;20202;-76
2023/04/10 09:01:11;;;;;;;12.18;8.65;;;;;;;11.01;64.95;63131.09;4928155;29;20216;-75
2023/04/10 09:03:38;;;;;;;10.23;8.90;;;;;;;11.21;64.55;63153.84;4929662;29;20241;-76
2023/04/10 09:06:06;;;;;;;17.33;11.40;;;;;;;11.17;63.38;63152.22;4930164;29;20526;-75
2023/04/10 09:08:34;;;;;;;13.50;10.15;;;;;;;10.95;64.79;63127.44;4927954;29;20222;-75
2023/04/10 09:11:02;;;;;;;11.13;9.07;;;;;;;10.74;66.17;63100.59;4931335;29;20198;-77
2023/04/10 09:13:40;;;;;;;12.07;9.23;;;;;;;10.65;66.85;63091.28;4928523;29;20285;-77
2023/04/10 09:16:08;;;;;;;10.52;8.70;;;;;;;10.59;67.28;63087.09;4927444;29;20202;-76
2023/04/10 09:18:46;;;;;;;8.38;7.57;;;;;;;10.44;66.34;63074.63;4927648;29;20289;-76
2023/04/10 09:21:15;;;;;;;9.98;8.43;;;;;;;10.66;67.07;63096.88;4928476;29;20210;-76
2023/04/10 09:23:43;;;;;;;9.68;8.68;;;;;;;10.94;65.96;63123.84;4928142;29;20424;-77
2023/04/10 09:26:25;;;;;;;14.32;9.32;;;;;;;10.91;67.43;63120.75;4928962;29;20206;-77
2023/04/10 09:29:00;;;;;;;11.82;9.32;;;;;;;11.02;65.86;63129.59;4928938;29;20210;-75
2023/04/10 09:31:32;;;;;;;22.38;11.32;;;;;;;10.59;64.51;63084.56;4929511;29;20202;-75
2023/04/10 09:34:11;;;;;;;16.77;10.95;;;;;;;10.54;67.12;63085.00;4932022;29;20225;-76
2023/04/10 09:36:40;;;;;;;10.82;8.70;;;;;;;11.08;65.40;63137.84;4926622;29;20252;-75
2023/04/10 09:39:07;;;;;;;12.40;8.13;;;;;;;11.39;62.32;63170.44;4928229;29;20214;-76
2023/04/10 09:41:47;;;;;;;12.32;8.63;;;;;;;11.25;62.06;63161.03;4929243;29;20226;-77
2023/04/10 09:44:14;;;;;;;13.60;10.77;;;;;;;11.04;64.12;63134.22;4931758;29;20233;-76
2023/04/10 09:46:41;;;;;;;9.07;8.10;;;;;;;11.07;61.43;63137.31;4927499;29;20225;-76
2023/04/10 09:49:08;;;;;;;8.95;8.05;;;;;;;10.82;62.58;63108.38;4927349;29;20250;-75
2023/04/10 09:51:36;;;;;;;11.38;8.63;;;;;;;10.84;64.68;63110.94;4929161;29;20238;-77
2023/04/10 09:54:03;;;;;;;11.55;9.13;;;;;;;10.94;65.48;63126.38;4927609;29;20210;-77
2023/04/10 09:56:31;;;;;;;16.75;10.90;;;;;;;11.09;66.28;63141.94;4930286;29;20230;-76
2023/04/10 09:59:03;;;;;;;9.70;8.50;;;;;;;11.31;64.48;63159.09;4932910;29;20208;-75
2023/04/10 10:01:33;;;;;;;10.95;8.50;;;;;;;10.98;62.21;63130.53;4929498;29;20210;-76
2023/04/10 10:04:02;;;;;;;12.52;9.05;;;;;;;11.26;61.79;63153.91;4930960;29;20245;-77
2023/04/10 10:06:31;;;;;;;13.68;9.70;;;;;;;11.65;62.40;63196.38;4936525;29;20441;-76
2023/04/10 10:09:03;;;;;;;12.85;9.90;;;;;;;11.69;62.67;63200.50;4931779;29;20226;-75
2023/04/10 10:11:33;;;;;;;11.23;8.80;;;;;;;11.90;60.97;63219.72;4930879;29;20507;-76
2023/04/10 10:14:04;;;;;;;14.50;8.50;;;;;;;12.06;59.75;63238.84;4931563;29;20209;-76
2023/04/10 10:16:37;;;;;;;8.80;7.70;;;;;;;12.11;57.78;63247.09;4930484;29;20278;-76
2023/04/10 10:19:09;;;;;;;9.32;7.78;;;;;;;12.30;56.55;63266.28;4928022;29;20242;-76
2023/04/10 10:21:38;;;;;;;11.50;9.20;;;;;;;12.11;56.95;63246.56;4936316;29;20242;-80
2023/04/10 10:24:09;;;;;;;11.73;9.30;;;;;;;11.69;59.10;63201.03;4938155;29;20249;-79
2023/04/10 10:26:36;;;;;;;8.20;7.38;;;;;;;11.58;58.06;63192.16;4937466;29;20270;-81
2023/04/10 10:29:09;;;;;;;8.95;7.22;;;;;;;11.35;58.41;63168.84;4933517;29;20277;-80
2023/04/10 10:31:37;;;;;;;7.90;6.85;;;;;;;11.85;57.41;63219.63;4934099;29;20218;-81
2023/04/10 10:34:06;;;;;;;9.88;7.20;;;;;;;11.93;56.05;63225.38;4933864;29;20269;-80
2023/04/10 10:36:34;;;;;;;8.00;7.20;;;;;;;12.08;56.87;63243.97;4934306;29;20214;-81
2023/04/10 10:39:17;;;;;;;8.57;7.00;;;;;;;11.98;55.25;63233.09;4934213;29;20214;-79
2023/04/10 10:41:53;;;;;;;7.88;7.10;;;;;;;12.04;56.62;63239.84;4931189;29;20242;-81
2023/04/10 10:44:31;;;;;;;8.07;6.90;;;;;;;12.19;52.82;63257.41;4936582;29;20226;-82
2023/04/10 10:47:08;;;;;;;7.25;6.55;;;;;;;12.39;53.45;63276.13;4928290;29;20234;-81
2023/04/10 10:49:57;;;;;;;6.72;6.13;;;;;;;12.44;52.70;63276.19;4917965;29;20258;-82
2023/04/10 10:52:48;;;;;;;9.70;7.55;;;;;;;12.39;53.16;63273.56;4929750;29;20238;-82
2023/04/10 10:55:37;;;;;;;11.80;7.65;;;;;;;12.37;53.80;63276.09;4918051;29;20270;-82
2023/04/10 10:58:06;;;;;;;8.50;7.70;;;;;;;12.17;53.99;63250.75;4937623;29;20230;-81
2023/04/10 11:01:06;;;;;;;11.30;8.52;;;;;;;12.17;53.88;63252.78;4937120;29;20202;-80
2023/04/10 11:03:36;;;;;;;8.73;6.97;;;;;;;12.20;54.57;63258.97;4914121;29;20259;-81
2023/04/10 11:06:06;;;;;;;8.80;7.32;;;;;;;12.56;55.44;63290.69;4933392;29;20210;-77
2023/04/10 11:08:42;;;;;;;7.43;6.72;;;;;;;12.93;52.71;63328.50;4935333;29;20281;-80
2023/04/10 11:11:14;;;;;;;10.27;7.90;;;;;;;13.43;52.72;63377.84;4935790;29;20193;-80
2023/04/10 11:13:43;;;;;;;8.32;7.38;;;;;;;13.92;50.70;63431.25;4936321;29;20233;-81
2023/04/10 11:16:11;;;;;;;7.32;6.63;;;;;;;13.96;49.51;63437.47;4937324;29;20442;-80
2023/04/10 11:19:11;;;;;;;6.78;6.18;;;;;;;14.08;47.58;63447.34;4936565;29;20399;-80
2023/04/10 11:22:19;;;;;;;7.38;6.63;;;;;;;13.76;48.24;63412.09;4881046;29;20228;-82
2023/04/10 11:24:56;;;;;;;7.00;6.45;;;;;;;12.88;49.07;63328.44;4928261;29;20249;-80
2023/04/10 11:27:47;;;;;;;7.00;6.40;;;;;;;13.20;50.83;63359.09;4935607;29;20214;-81
2023/04/10 11:30:31;;;;;;;7.78;7.07;;;;;;;13.24;49.50;63360.69;4935176;29;20442;-82
2023/04/10 11:32:59;;;;;;;11.65;8.95;;;;;;;13.00;50.88;63335.78;4937294;29;20230;-80
2023/04/10 11:35:30;;;;;;;11.00;8.95;;;;;;;12.38;52.06;63272.53;4937164;29;20198;-81
2023/04/10 11:38:14;;;;;;;8.75;7.40;;;;;;;12.32;52.58;63268.84;4936780;29;20218;-80
2023/04/10 11:41:01;;;;;;;7.97;6.85;;;;;;;12.55;51.83;63295.25;4936776;29;20261;-80
2023/04/10 11:43:28;;;;;;;7.22;6.53;;;;;;;12.00;52.84;63232.63;4932683;29;20513;-79
2023/04/10 11:46:07;;;;;;;7.68;6.95;;;;;;;11.63;54.61;63199.91;4933240;29;20197;-78
2023/04/10 11:48:35;;;;;;;9.82;6.80;;;;;;;11.41;55.06;63172.50;4935228;29;20257;-78